Jacinto, Nebraska
Current Conditions -  °F | °C
As of 11:15 AM on Thursday 29 Jan 2015 (Local Time) from KIBM Reporting Station
Clear Clear  
Wind Chill: 37°   Ceiling: Unl
Heat Index: 43°   Visibility: 10mi
Dew Point: 17°   Wind: 12mph
Humidity: 35%   Direction: 340°NNW
Pressure: 30.47"   Gusts: NA
Location:  41.202°N, 103.47°W
Report Text: KIBM 291815Z AUTO 34010KT 10SM CLR 06/M08 A3047 RMK AO2 T00611083
Loading
Personal Weather Stations






























Interactive Weather Map New forecast layout! Learn more

10-Day Weather Forecast

Advertisements
Track Severe Weather on mobile